Time;durP1;ratioP1;P1;durP2;ratioP2;P2;SDS_P1;SDS_P2;PMS_P1;PMS_P2;Temp;Humidity;BMP_temperature;BMP_pressure;BME280_temperature;BME280_humidity;BME280_pressure;Samples;Min_cycle;Max_cycle;Signal;HPM_P1;HPM_P2
2023/08/21 00:01:40;;;;;;;8.07;3.55;;;;;;;;;;4994600;28;20027;-51
2023/08/21 00:04:06;;;;;;;7.70;3.97;;;;;;;;;;4995610;28;20050;-51
2023/08/21 00:06:31;;;;;;;8.48;3.90;;;;;;;;;;4993955;28;20038;-50
2023/08/21 00:08:57;;;;;;;9.98;4.38;;;;;;;;;;4994766;28;20050;-51
2023/08/21 00:11:22;;;;;;;13.07;4.18;;;;;;;;;;4994520;28;20022;-49
2023/08/21 00:13:49;;;;;;;12.15;4.70;;;;;;;;;;4995534;28;20141;-53
2023/08/21 00:16:16;;;;;;;8.20;4.18;;;;;;;;;;4990271;28;20062;-50
2023/08/21 00:18:41;;;;;;;10.82;4.32;;;;;;;;;;4990808;28;20038;-48
2023/08/21 00:21:06;;;;;;;11.15;4.53;;;;;;;;;;4992037;28;20113;-48
2023/08/21 00:23:32;;;;;;;8.98;4.55;;;;;;;;;;4994165;28;20041;-49
2023/08/21 00:25:57;;;;;;;14.23;4.60;;;;;;;;;;4993533;28;20057;-52
2023/08/21 00:28:23;;;;;;;10.95;4.47;;;;;;;;;;4994250;28;20408;-51
2023/08/21 00:30:48;;;;;;;7.68;4.45;;;;;;;;;;4995843;28;20037;-50
2023/08/21 00:33:14;;;;;;;9.75;4.30;;;;;;;;;;4997635;28;20060;-50
2023/08/21 00:35:39;;;;;;;12.80;4.20;;;;;;;;;;4997027;28;20058;-49
2023/08/21 00:38:05;;;;;;;10.00;4.70;;;;;;;;;;4987770;28;20587;-49
2023/08/21 00:40:30;;;;;;;11.77;4.43;;;;;;;;;;4993577;28;20415;-49
2023/08/21 00:42:56;;;;;;;8.35;4.18;;;;;;;;;;4994851;28;20112;-51
2023/08/21 00:45:21;;;;;;;10.48;4.35;;;;;;;;;;4996492;28;20026;-50
2023/08/21 00:47:47;;;;;;;12.30;4.57;;;;;;;;;;4995256;28;20042;-50
2023/08/21 00:50:12;;;;;;;23.08;5.00;;;;;;;;;;4993311;28;20109;-50
2023/08/21 00:52:44;;;;;;;16.05;4.57;;;;;;;;;;4993049;28;20041;-51
2023/08/21 00:55:10;;;;;;;6.68;4.00;;;;;;;;;;4994187;28;20103;-49
2023/08/21 00:57:36;;;;;;;9.85;4.68;;;;;;;;;;4994724;28;20057;-52
2023/08/21 01:00:04;;;;;;;12.52;4.38;;;;;;;;;;4995141;28;20030;-53
2023/08/21 01:02:29;;;;;;;11.27;3.95;;;;;;;;;;4995330;28;20511;-50
2023/08/21 01:04:55;;;;;;;20.13;4.25;;;;;;;;;;4994704;28;20027;-51
2023/08/21 01:07:20;;;;;;;12.25;4.40;;;;;;;;;;4995506;28;20018;-49
2023/08/21 01:09:53;;;;;;;10.88;5.07;;;;;;;;;;4991233;28;20046;-51
2023/08/21 01:12:44;;;;;;;7.70;4.43;;;;;;;;;;4994246;28;20089;-50
2023/08/21 01:15:10;;;;;;;9.90;4.07;;;;;;;;;;4995714;28;20047;-48
2023/08/21 01:17:37;;;;;;;14.73;4.50;;;;;;;;;;4995027;28;20037;-47
2023/08/21 01:20:03;;;;;;;12.38;3.97;;;;;;;;;;4994722;28;20053;-49
2023/08/21 01:22:50;;;;;;;13.25;4.38;;;;;;;;;;4991952;28;20037;-48
2023/08/21 01:25:16;;;;;;;12.45;4.10;;;;;;;;;;4994037;28;20035;-49
2023/08/21 01:27:45;;;;;;;7.68;4.03;;;;;;;;;;4994349;28;20034;-48
2023/08/21 01:30:11;;;;;;;12.30;4.65;;;;;;;;;;4992962;28;20057;-50
2023/08/21 01:33:01;;;;;;;7.10;4.35;;;;;;;;;;4993205;28;20030;-50
2023/08/21 01:35:29;;;;;;;10.68;4.32;;;;;;;;;;4994317;28;20046;-47
2023/08/21 01:37:55;;;;;;;12.95;4.53;;;;;;;;;;4997390;28;20081;-49
2023/08/21 01:40:24;;;;;;;8.90;4.55;;;;;;;;;;4997647;28;20034;-50
2023/08/21 01:42:50;;;;;;;13.63;4.43;;;;;;;;;;4997170;28;20113;-50
2023/08/21 01:45:16;;;;;;;11.40;4.35;;;;;;;;;;4999336;28;20038;-51
2023/08/21 01:47:41;;;;;;;16.02;4.57;;;;;;;;;;4996770;28;20053;-49
2023/08/21 01:50:07;;;;;;;14.85;4.13;;;;;;;;;;4996323;28;20086;-51
2023/08/21 01:52:32;;;;;;;16.98;4.20;;;;;;;;;;4994207;28;20077;-49
2023/08/21 01:54:58;;;;;;;13.02;4.53;;;;;;;;;;4994559;28;20027;-49
2023/08/21 01:57:24;;;;;;;6.95;4.63;;;;;;;;;;4998835;28;20483;-44
2023/08/21 01:59:49;;;;;;;7.72;4.15;;;;;;;;;;4997545;28;20038;-50
2023/08/21 02:02:14;;;;;;;4.57;3.90;;;;;;;;;;4996009;28;20092;-48
2023/08/21 02:04:40;;;;;;;14.23;4.43;;;;;;;;;;4998273;28;20566;-49
2023/08/21 02:07:07;;;;;;;15.98;4.05;;;;;;;;;;4998297;28;20500;-49
2023/08/21 02:09:32;;;;;;;12.10;4.05;;;;;;;;;;4996855;28;20049;-51
2023/08/21 02:11:58;;;;;;;16.90;4.50;;;;;;;;;;4995897;28;20035;-48
2023/08/21 02:14:23;;;;;;;9.93;4.15;;;;;;;;;;4997726;28;20682;-48
2023/08/21 02:16:48;;;;;;;11.45;4.25;;;;;;;;;;4996884;28;20066;-48
2023/08/21 02:19:14;;;;;;;10.93;4.25;;;;;;;;;;4997047;28;20027;-49
2023/08/21 02:21:39;;;;;;;10.90;4.53;;;;;;;;;;4989755;28;20038;-52
2023/08/21 02:24:05;;;;;;;8.95;3.95;;;;;;;;;;4993293;28;20038;-50
2023/08/21 02:26:30;;;;;;;16.00;4.35;;;;;;;;;;4997816;28;20072;-48
2023/08/21 02:28:55;;;;;;;11.18;4.07;;;;;;;;;;4995339;28;20073;-51
2023/08/21 02:31:21;;;;;;;13.00;4.00;;;;;;;;;;4996560;28;20038;-51
2023/08/21 02:33:46;;;;;;;15.60;4.15;;;;;;;;;;4996417;28;20096;-47
2023/08/21 02:36:11;;;;;;;13.98;3.83;;;;;;;;;;4996783;28;20030;-48
2023/08/21 02:38:37;;;;;;;13.57;4.15;;;;;;;;;;4997215;28;20030;-48
2023/08/21 02:41:02;;;;;;;21.60;4.30;;;;;;;;;;4994730;28;20130;-49
2023/08/21 02:43:28;;;;;;;17.27;4.32;;;;;;;;;;4995488;28;20042;-51
2023/08/21 02:45:53;;;;;;;17.35;4.30;;;;;;;;;;4996891;28;20030;-50
2023/08/21 02:48:18;;;;;;;11.95;4.07;;;;;;;;;;4996202;28;20030;-52
2023/08/21 02:50:44;;;;;;;10.07;3.70;;;;;;;;;;4994613;28;20041;-52
2023/08/21 02:53:09;;;;;;;14.93;3.78;;;;;;;;;;4996135;28;20038;-49
2023/08/21 02:55:35;;;;;;;19.38;4.32;;;;;;;;;;4996898;28;20026;-48
2023/08/21 02:58:00;;;;;;;14.18;4.18;;;;;;;;;;4997224;28;20090;-48
2023/08/21 03:00:25;;;;;;;20.50;4.40;;;;;;;;;;4995175;28;20022;-53
2023/08/21 03:02:51;;;;;;;16.33;4.03;;;;;;;;;;5000448;28;20034;-50
2023/08/21 03:05:16;;;;;;;8.65;3.63;;;;;;;;;;4999985;28;20472;-48
2023/08/21 03:07:42;;;;;;;17.80;4.85;;;;;;;;;;4993373;28;20037;-47
2023/08/21 03:10:08;;;;;;;15.52;4.38;;;;;;;;;;4995670;28;20395;-48
2023/08/21 03:12:34;;;;;;;17.30;4.15;;;;;;;;;;4994090;28;20050;-50
2023/08/21 03:14:59;;;;;;;10.90;3.58;;;;;;;;;;4994889;28;20225;-48
2023/08/21 03:17:25;;;;;;;18.13;4.15;;;;;;;;;;4986611;28;20026;-48
2023/08/21 03:19:50;;;;;;;12.68;3.90;;;;;;;;;;4995934;28;20073;-48
2023/08/21 03:22:16;;;;;;;15.32;4.25;;;;;;;;;;4994405;28;20392;-50
2023/08/21 03:24:41;;;;;;;22.13;5.05;;;;;;;;;;4993211;28;20445;-49
2023/08/21 03:27:07;;;;;;;10.73;4.50;;;;;;;;;;4997183;28;20029;-50
2023/08/21 03:29:32;;;;;;;14.93;4.07;;;;;;;;;;4997352;28;20041;-49
2023/08/21 03:31:57;;;;;;;20.63;4.80;;;;;;;;;;4995999;28;20124;-46
2023/08/21 03:34:23;;;;;;;13.45;3.78;;;;;;;;;;4996038;28;20038;-48
2023/08/21 03:36:48;;;;;;;18.67;4.03;;;;;;;;;;4996330;28;20135;-49
2023/08/21 03:39:14;;;;;;;17.92;4.03;;;;;;;;;;4996629;28;20046;-50
2023/08/21 03:41:39;;;;;;;10.00;3.92;;;;;;;;;;4991513;28;20030;-52
2023/08/21 03:44:05;;;;;;;15.13;4.15;;;;;;;;;;4994233;28;20470;-49
2023/08/21 03:46:30;;;;;;;14.70;3.78;;;;;;;;;;4995958;28;20034;-49
2023/08/21 03:48:56;;;;;;;15.68;4.00;;;;;;;;;;4995339;28;20431;-49
2023/08/21 03:51:21;;;;;;;15.35;3.72;;;;;;;;;;4995738;28;20026;-47
2023/08/21 03:53:47;;;;;;;10.80;3.83;;;;;;;;;;4995748;28;20129;-51
2023/08/21 03:56:12;;;;;;;13.27;3.42;;;;;;;;;;4996317;28;20100;-47
2023/08/21 03:58:37;;;;;;;13.23;4.20;;;;;;;;;;4994123;28;20056;-50
2023/08/21 04:01:03;;;;;;;9.05;3.90;;;;;;;;;;4995614;28;20061;-50
2023/08/21 04:03:28;;;;;;;15.95;4.45;;;;;;;;;;4999518;28;20031;-50
2023/08/21 04:05:56;;;;;;;17.08;4.50;;;;;;;;;;4996394;28;20022;-48
2023/08/21 04:08:21;;;;;;;14.52;3.72;;;;;;;;;;4996099;28;20065;-51
2023/08/21 04:10:47;;;;;;;18.88;4.35;;;;;;;;;;4993277;28;20914;-50
2023/08/21 04:13:12;;;;;;;15.88;4.00;;;;;;;;;;4994064;28;20047;-48
2023/08/21 04:15:37;;;;;;;10.45;4.15;;;;;;;;;;4995172;28;20027;-49
2023/08/21 04:18:04;;;;;;;14.70;4.30;;;;;;;;;;4987746;28;20046;-50
2023/08/21 04:20:29;;;;;;;7.35;3.67;;;;;;;;;;4993273;28;20018;-50
2023/08/21 04:22:54;;;;;;;15.98;4.03;;;;;;;;;;4992995;28;20038;-51
2023/08/21 04:25:20;;;;;;;12.57;4.13;;;;;;;;;;4995789;28;20054;-49
2023/08/21 04:27:45;;;;;;;20.55;4.68;;;;;;;;;;4993759;28;20053;-52
2023/08/21 04:30:11;;;;;;;12.30;4.05;;;;;;;;;;4989683;28;20376;-50
2023/08/21 04:32:37;;;;;;;13.85;4.15;;;;;;;;;;4994475;28;20033;-49
2023/08/21 04:35:02;;;;;;;17.60;4.75;;;;;;;;;;4995990;28;20101;-49
2023/08/21 04:37:28;;;;;;;16.17;3.85;;;;;;;;;;4995078;28;20030;-49
2023/08/21 04:39:54;;;;;;;23.77;4.43;;;;;;;;;;4995545;28;20030;-53
2023/08/21 04:42:20;;;;;;;14.93;4.28;;;;;;;;;;4994218;28;20030;-51
2023/08/21 04:44:46;;;;;;;13.05;4.95;;;;;;;;;;4995199;28;20042;-52
2023/08/21 04:47:28;;;;;;;10.88;4.50;;;;;;;;;;4992891;28;20029;-54
2023/08/21 04:49:54;;;;;;;11.07;4.15;;;;;;;;;;4995948;28;20511;-53
2023/08/21 04:52:21;;;;;;;20.35;4.53;;;;;;;;;;4993445;28;20030;-52
2023/08/21 04:54:47;;;;;;;18.23;3.97;;;;;;;;;;4994981;28;20046;-52
2023/08/21 04:57:13;;;;;;;15.27;3.97;;;;;;;;;;4996457;28;20034;-48
2023/08/21 04:59:39;;;;;;;9.27;4.10;;;;;;;;;;4993313;28;20034;-49
2023/08/21 05:02:04;;;;;;;10.52;4.25;;;;;;;;;;4994821;28;20037;-48
2023/08/21 05:04:30;;;;;;;11.70;4.15;;;;;;;;;;4993398;28;20073;-48
2023/08/21 05:06:55;;;;;;;10.57;4.07;;;;;;;;;;4995091;28;20033;-48
2023/08/21 05:09:21;;;;;;;22.42;4.13;;;;;;;;;;4997473;28;20034;-49
2023/08/21 05:11:46;;;;;;;13.73;4.03;;;;;;;;;;4996964;28;20461;-49
2023/08/21 05:14:12;;;;;;;19.55;4.47;;;;;;;;;;4997515;28;20046;-50
2023/08/21 05:16:37;;;;;;;20.67;4.60;;;;;;;;;;4998392;28;20031;-50
2023/08/21 05:19:03;;;;;;;27.65;4.35;;;;;;;;;;5025796;28;20039;-47
2023/08/21 05:21:29;;;;;;;15.98;3.88;;;;;;;;;;4993747;28;20029;-51
2023/08/21 05:23:54;;;;;;;13.52;4.55;;;;;;;;;;4994724;28;20701;-48
2023/08/21 05:26:20;;;;;;;8.05;4.15;;;;;;;;;;4998913;28;20062;-49
2023/08/21 05:28:45;;;;;;;14.77;4.35;;;;;;;;;;4996512;28;20530;-48
2023/08/21 05:31:11;;;;;;;13.15;4.80;;;;;;;;;;4998400;28;20496;-50
2023/08/21 05:33:36;;;;;;;11.40;4.45;;;;;;;;;;4997687;28;20097;-48
2023/08/21 05:36:01;;;;;;;7.95;4.00;;;;;;;;;;4997871;28;20055;-50
2023/08/21 05:38:27;;;;;;;12.23;4.10;;;;;;;;;;4998553;28;20125;-49
2023/08/21 05:40:53;;;;;;;7.70;4.32;;;;;;;;;;4998374;28;20026;-50
2023/08/21 05:43:18;;;;;;;15.75;4.22;;;;;;;;;;4997708;28;20646;-48
2023/08/21 05:45:43;;;;;;;10.15;3.92;;;;;;;;;;4998973;28;20037;-51
2023/08/21 05:48:09;;;;;;;12.32;3.90;;;;;;;;;;4996329;28;20532;-51
2023/08/21 05:50:36;;;;;;;12.10;4.65;;;;;;;;;;4997753;28;20465;-47
2023/08/21 05:53:03;;;;;;;9.27;4.32;;;;;;;;;;4997282;28;20125;-48
2023/08/21 05:55:29;;;;;;;18.58;4.68;;;;;;;;;;4997349;28;20035;-48
2023/08/21 05:57:54;;;;;;;15.88;4.57;;;;;;;;;;4996378;28;20048;-48
2023/08/21 06:00:20;;;;;;;20.73;4.70;;;;;;;;;;4998731;28;20049;-49
2023/08/21 06:02:45;;;;;;;23.83;5.35;;;;;;;;;;4997179;28;20038;-49
2023/08/21 06:05:10;;;;;;;20.80;5.05;;;;;;;;;;4991932;28;20404;-49
2023/08/21 06:07:36;;;;;;;18.38;4.82;;;;;;;;;;4997826;28;20496;-50
2023/08/21 06:10:01;;;;;;;16.52;5.10;;;;;;;;;;4998436;28;20040;-49
2023/08/21 06:12:27;;;;;;;17.17;4.80;;;;;;;;;;4988978;28;20026;-50
2023/08/21 06:14:52;;;;;;;15.00;5.28;;;;;;;;;;4992290;28;20026;-47
2023/08/21 06:17:18;;;;;;;21.73;5.00;;;;;;;;;;4995586;28;21191;-49
2023/08/21 06:19:44;;;;;;;12.75;4.57;;;;;;;;;;4994046;28;20492;-45
2023/08/21 06:22:09;;;;;;;13.80;5.00;;;;;;;;;;4989496;28;20033;-47
2023/08/21 06:24:34;;;;;;;16.10;4.82;;;;;;;;;;4993813;28;20058;-49
2023/08/21 06:27:00;;;;;;;16.73;5.30;;;;;;;;;;4994838;28;20023;-47
2023/08/21 06:29:25;;;;;;;17.60;4.90;;;;;;;;;;4993368;28;20755;-46
2023/08/21 06:31:50;;;;;;;21.90;5.05;;;;;;;;;;4994919;28;20052;-50
2023/08/21 06:34:16;;;;;;;14.80;5.50;;;;;;;;;;4989594;28;20104;-50
2023/08/21 06:36:41;;;;;;;10.93;4.93;;;;;;;;;;4994638;28;20214;-47
2023/08/21 06:39:07;;;;;;;15.77;4.88;;;;;;;;;;4998933;28;20049;-51
2023/08/21 06:41:32;;;;;;;14.52;4.53;;;;;;;;;;4995030;28;20045;-46
2023/08/21 06:43:58;;;;;;;14.80;5.07;;;;;;;;;;4993918;28;20038;-46
2023/08/21 06:46:23;;;;;;;11.32;4.80;;;;;;;;;;4991369;28;20026;-50
2023/08/21 06:48:50;;;;;;;15.10;4.75;;;;;;;;;;4993195;28;20073;-47
2023/08/21 06:51:15;;;;;;;10.02;4.47;;;;;;;;;;4995583;28;20026;-48
2023/08/21 06:53:41;;;;;;;14.02;4.60;;;;;;;;;;4991673;28;20801;-49
2023/08/21 06:56:07;;;;;;;13.48;4.75;;;;;;;;;;4991783;28;20022;-51
2023/08/21 06:58:32;;;;;;;16.08;5.35;;;;;;;;;;4989192;28;20031;-53
2023/08/21 07:00:59;;;;;;;11.43;4.53;;;;;;;;;;4993206;28;20030;-48
2023/08/21 07:03:25;;;;;;;18.08;4.30;;;;;;;;;;4989596;28;20113;-49
2023/08/21 07:05:57;;;;;;;10.73;4.57;;;;;;;;;;4992479;28;20081;-51
2023/08/21 07:08:26;;;;;;;11.20;4.53;;;;;;;;;;4992252;28;20561;-51
2023/08/21 07:10:53;;;;;;;11.07;4.63;;;;;;;;;;4991594;28;20550;-46
2023/08/21 07:13:19;;;;;;;9.65;4.35;;;;;;;;;;4992508;28;20058;-47
2023/08/21 07:15:44;;;;;;;17.40;4.90;;;;;;;;;;4990218;28;20030;-49
2023/08/21 07:18:09;;;;;;;11.73;5.05;;;;;;;;;;4986738;28;20054;-52
2023/08/21 07:20:35;;;;;;;13.45;4.50;;;;;;;;;;4986753;28;20038;-52
2023/08/21 07:23:01;;;;;;;17.95;4.68;;;;;;;;;;4990519;28;20134;-53
2023/08/21 07:25:28;;;;;;;10.98;4.72;;;;;;;;;;4992068;28;20031;-49
2023/08/21 07:27:53;;;;;;;11.45;4.85;;;;;;;;;;4991203;28;20126;-49
2023/08/21 07:30:19;;;;;;;6.63;4.60;;;;;;;;;;4993975;28;20121;-51
2023/08/21 07:32:45;;;;;;;14.02;5.03;;;;;;;;;;4991733;28;20046;-53
2023/08/21 07:35:10;;;;;;;16.77;4.32;;;;;;;;;;4987171;28;20023;-53
2023/08/21 07:37:36;;;;;;;8.20;4.90;;;;;;;;;;4991344;28;20029;-52
2023/08/21 07:40:01;;;;;;;17.05;4.82;;;;;;;;;;4993841;28;20030;-50
2023/08/21 07:42:27;;;;;;;11.35;4.85;;;;;;;;;;4986759;28;20039;-51
2023/08/21 07:44:53;;;;;;;9.95;4.88;;;;;;;;;;4993826;28;20018;-49
2023/08/21 07:47:18;;;;;;;8.40;5.15;;;;;;;;;;4992882;28;20026;-50
2023/08/21 07:49:44;;;;;;;15.73;5.72;;;;;;;;;;4991282;28;20566;-51
2023/08/21 07:52:09;;;;;;;12.05;5.15;;;;;;;;;;4986035;28;20026;-49
2023/08/21 07:54:35;;;;;;;9.52;5.10;;;;;;;;;;4987064;28;20079;-48
2023/08/21 07:57:00;;;;;;;17.15;5.40;;;;;;;;;;4992665;28;20034;-48
2023/08/21 07:59:26;;;;;;;13.20;5.55;;;;;;;;;;4993465;28;20749;-49
2023/08/21 08:01:52;;;;;;;13.90;5.18;;;;;;;;;;4986863;28;20022;-50
2023/08/21 08:04:17;;;;;;;13.25;5.15;;;;;;;;;;4993952;28;20489;-52
2023/08/21 08:06:42;;;;;;;13.60;5.25;;;;;;;;;;4991147;28;20396;-49
2023/08/21 08:09:08;;;;;;;6.13;4.88;;;;;;;;;;4992444;28;20560;-52
2023/08/21 08:11:33;;;;;;;15.65;5.80;;;;;;;;;;4988108;28;20027;-52
2023/08/21 08:13:59;;;;;;;14.48;5.50;;;;;;;;;;4991553;28;20062;-50
2023/08/21 08:16:24;;;;;;;18.35;5.57;;;;;;;;;;4982813;28;20768;-51
2023/08/21 08:18:50;;;;;;;24.05;6.57;;;;;;;;;;4988804;28;20046;-51
2023/08/21 08:21:16;;;;;;;23.52;5.80;;;;;;;;;;4988845;28;20022;-50
2023/08/21 08:23:41;;;;;;;22.17;6.40;;;;;;;;;;4989918;28;20431;-52
2023/08/21 08:26:08;;;;;;;21.42;5.90;;;;;;;;;;4990709;28;20085;-52
2023/08/21 08:28:34;;;;;;;20.60;6.63;;;;;;;;;;4991578;28;20038;-48
2023/08/21 08:31:00;;;;;;;28.08;7.05;;;;;;;;;;4991710;28;20034;-53
2023/08/21 08:33:26;;;;;;;18.52;6.68;;;;;;;;;;4990835;28;20109;-50
2023/08/21 08:35:51;;;;;;;19.45;6.25;;;;;;;;;;4989273;28;20544;-53
2023/08/21 08:38:18;;;;;;;18.08;6.20;;;;;;;;;;4990917;28;20066;-48
2023/08/21 08:40:45;;;;;;;28.83;6.75;;;;;;;;;;4990612;28;20050;-53
2023/08/21 08:43:14;;;;;;;18.52;6.53;;;;;;;;;;5016136;28;20041;-52
2023/08/21 08:45:41;;;;;;;19.20;6.10;;;;;;;;;;4989055;28;20081;-49
2023/08/21 08:48:07;;;;;;;19.08;5.88;;;;;;;;;;4993530;28;20049;-51
2023/08/21 08:50:33;;;;;;;28.13;6.57;;;;;;;;;;4989694;28;20504;-53
2023/08/21 08:53:00;;;;;;;16.50;6.53;;;;;;;;;;4988059;28;20045;-51
2023/08/21 08:55:26;;;;;;;25.95;6.00;;;;;;;;;;4989722;28;20022;-51
2023/08/21 08:57:52;;;;;;;20.20;6.22;;;;;;;;;;4996646;28;20093;-48
2023/08/21 09:00:18;;;;;;;23.63;5.78;;;;;;;;;;4994311;28;20441;-52
2023/08/21 09:02:43;;;;;;;22.38;6.13;;;;;;;;;;4994510;28;20050;-48
2023/08/21 09:05:10;;;;;;;20.92;6.25;;;;;;;;;;4999888;28;20674;-49
2023/08/21 09:07:36;;;;;;;20.45;5.88;;;;;;;;;;4997319;28;20030;-47
2023/08/21 09:10:02;;;;;;;26.83;7.60;;;;;;;;;;4999015;28;20099;-51
2023/08/21 09:12:31;;;;;;;15.27;6.28;;;;;;;;;;4994344;28;20022;-50
2023/08/21 09:14:58;;;;;;;12.32;5.82;;;;;;;;;;5029792;28;20026;-51
2023/08/21 09:17:25;;;;;;;31.35;7.00;;;;;;;;;;4997356;28;20070;-45
2023/08/21 09:19:51;;;;;;;16.73;6.47;;;;;;;;;;4996902;28;20022;-46
2023/08/21 09:22:18;;;;;;;17.33;5.28;;;;;;;;;;5025767;28;20041;-46
2023/08/21 09:25:07;;;;;;;24.92;6.22;;;;;;;;;;4991082;28;20046;-52
2023/08/21 09:27:38;;;;;;;14.70;5.90;;;;;;;;;;4990919;28;20092;-51
2023/08/21 09:30:05;;;;;;;13.60;5.18;;;;;;;;;;4996803;28;20018;-51
2023/08/21 09:32:30;;;;;;;13.65;5.65;;;;;;;;;;4999545;28;20102;-50
2023/08/21 09:34:56;;;;;;;19.15;5.90;;;;;;;;;;4994333;28;20022;-47
2023/08/21 09:37:29;;;;;;;12.88;5.47;;;;;;;;;;4996868;28;20386;-53
2023/08/21 09:40:00;;;;;;;14.40;5.53;;;;;;;;;;4995001;28;20052;-51
2023/08/21 09:42:26;;;;;;;;;;;;;;;;;;4994493;28;20034;-52
2023/08/21 09:44:51;;;;;;;17.20;5.53;;;;;;;;;;4994389;28;20260;-50
2023/08/21 09:47:17;;;;;;;15.55;5.95;;;;;;;;;;4995739;28;20045;-51
2023/08/21 09:49:43;;;;;;;17.70;5.95;;;;;;;;;;4996012;28;20062;-47
2023/08/21 09:52:11;;;;;;;18.00;5.88;;;;;;;;;;4994954;28;20037;-52
2023/08/21 09:54:38;;;;;;;20.77;4.93;;;;;;;;;;4991435;28;20022;-50
2023/08/21 09:57:04;;;;;;;22.40;6.15;;;;;;;;;;4995188;28;20088;-50
2023/08/21 09:59:33;;;;;;;18.90;5.80;;;;;;;;;;4994532;28;20035;-47
2023/08/21 10:02:00;;;;;;;11.02;5.03;;;;;;;;;;4997640;28;20579;-48
2023/08/21 10:04:28;;;;;;;17.33;5.10;;;;;;;;;;4996400;28;20045;-50
2023/08/21 10:06:55;;;;;;;10.55;4.90;;;;;;;;;;4997364;28;20032;-47
2023/08/21 10:09:23;;;;;;;15.00;4.75;;;;;;;;;;4994015;28;20463;-49
2023/08/21 10:11:48;;;;;;;14.57;4.78;;;;;;;;;;4995216;28;20022;-51
2023/08/21 10:14:14;;;;;;;8.80;4.60;;;;;;;;;;4993450;28;20440;-53
2023/08/21 10:16:41;;;;;;;12.80;4.90;;;;;;;;;;4992392;28;20034;-47
2023/08/21 10:19:07;;;;;;;9.98;4.78;;;;;;;;;;4996898;28;20551;-50
2023/08/21 10:21:37;;;;;;;18.15;5.35;;;;;;;;;;4994764;28;20041;-50
2023/08/21 10:24:03;;;;;;;19.95;5.00;;;;;;;;;;4987773;28;20042;-48
2023/08/21 10:26:28;;;;;;;13.60;5.10;;;;;;;;;;4994709;28;20045;-50
2023/08/21 10:28:55;;;;;;;17.15;4.90;;;;;;;;;;4990716;28;20045;-47
2023/08/21 10:31:34;;;;;;;19.35;4.93;;;;;;;;;;4994700;28;20361;-52
2023/08/21 10:34:02;;;;;;;13.32;4.93;;;;;;;;;;4992315;28;20107;-49
2023/08/21 10:37:00;;;;;;;21.00;5.18;;;;;;;;;;4948767;28;1173671;-49
2023/08/21 10:39:27;;;;;;;16.35;4.80;;;;;;;;;;4989069;28;20519;-51
2023/08/21 10:41:57;;;;;;;25.63;4.93;;;;;;;;;;4991669;28;20068;-48
2023/08/21 10:44:48;;;;;;;21.25;5.53;;;;;;;;;;4991575;28;20161;-52
2023/08/21 10:47:31;;;;;;;22.23;4.80;;;;;;;;;;4989969;28;20033;-49
2023/08/21 10:50:04;;;;;;;14.40;4.95;;;;;;;;;;4992609;28;20575;-50
2023/08/21 10:52:41;;;;;;;18.63;4.88;;;;;;;;;;4988141;28;20587;-52
2023/08/21 10:55:11;;;;;;;29.55;5.65;;;;;;;;;;4992665;28;20041;-50
2023/08/21 10:57:37;;;;;;;24.40;5.53;;;;;;;;;;4989641;28;20037;-52
2023/08/21 11:00:03;;;;;;;29.05;5.32;;;;;;;;;;4990722;28;20037;-49
2023/08/21 11:02:30;;;;;;;20.08;5.15;;;;;;;;;;4990447;28;20053;-48
2023/08/21 11:04:56;;;;;;;17.88;5.57;;;;;;;;;;4986666;28;20030;-48
2023/08/21 11:07:22;;;;;;;15.40;5.30;;;;;;;;;;4988251;28;20018;-48
2023/08/21 11:09:48;;;;;;;21.45;6.13;;;;;;;;;;4993061;28;20500;-47
2023/08/21 11:12:17;;;;;;;26.88;5.47;;;;;;;;;;4993599;28;20041;-53
2023/08/21 11:14:43;;;;;;;24.02;6.20;;;;;;;;;;4992921;28;20042;-50
2023/08/21 11:17:10;;;;;;;19.38;5.78;;;;;;;;;;4992412;28;20034;-52
2023/08/21 11:19:36;;;;;;;30.08;5.65;;;;;;;;;;4995895;28;20109;-50
2023/08/21 11:22:05;;;;;;;15.27;5.35;;;;;;;;;;4996978;28;20029;-51
2023/08/21 11:24:37;;;;;;;12.85;5.30;;;;;;;;;;4993072;28;20583;-50
2023/08/21 11:27:10;;;;;;;17.13;5.55;;;;;;;;;;4989209;28;20031;-47
2023/08/21 11:29:38;;;;;;;22.30;5.20;;;;;;;;;;4995667;28;20038;-47
2023/08/21 11:32:12;;;;;;;15.48;4.95;;;;;;;;;;4995241;28;20508;-48
2023/08/21 11:34:37;;;;;;;10.45;5.50;;;;;;;;;;4993611;28;20128;-48
2023/08/21 11:37:04;;;;;;;20.25;5.45;;;;;;;;;;4985204;28;20051;-47
2023/08/21 11:39:49;;;;;;;11.73;5.15;;;;;;;;;;4991253;28;20042;-51
2023/08/21 11:42:15;;;;;;;10.65;5.20;;;;;;;;;;4991523;28;20031;-52
2023/08/21 11:44:51;;;;;;;15.95;5.50;;;;;;;;;;4996031;28;21346;-52
2023/08/21 11:47:18;;;;;;;20.75;5.40;;;;;;;;;;4996685;28;20030;-50
2023/08/21 11:49:47;;;;;;;11.63;5.30;;;;;;;;;;4994915;28;20034;-53
2023/08/21 11:52:13;;;;;;;16.10;5.57;;;;;;;;;;4989199;28;20076;-49
2023/08/21 11:54:41;;;;;;;11.32;5.22;;;;;;;;;;4984981;28;20030;-51
2023/08/21 11:57:08;;;;;;;10.70;5.70;;;;;;;;;;4992807;28;20161;-51
2023/08/21 11:59:33;;;;;;;17.55;5.35;;;;;;;;;;4993492;28;20041;-46
2023/08/21 12:01:59;;;;;;;11.18;5.25;;;;;;;;;;4996527;28;20031;-47
2023/08/21 12:04:25;;;;;;;9.75;5.38;;;;;;;;;;4994797;28;20038;-50
2023/08/21 12:06:50;;;;;;;9.45;4.85;;;;;;;;;;4995615;28;20034;-50
2023/08/21 12:09:15;;;;;;;12.30;5.18;;;;;;;;;;4995992;28;20038;-47
2023/08/21 12:11:41;;;;;;;8.10;4.85;;;;;;;;;;4993672;28;20030;-49
2023/08/21 12:14:07;;;;;;;19.25;5.30;;;;;;;;;;4993773;28;20034;-48
2023/08/21 12:16:32;;;;;;;10.60;5.68;;;;;;;;;;4989935;28;20026;-50
2023/08/21 12:18:58;;;;;;;10.38;4.75;;;;;;;;;;4983671;28;20046;-50
2023/08/21 12:21:24;;;;;;;18.25;5.22;;;;;;;;;;4991332;28;20026;-52
2023/08/21 12:23:49;;;;;;;22.25;5.75;;;;;;;;;;4992296;28;20049;-53
2023/08/21 12:26:20;;;;;;;12.43;5.05;;;;;;;;;;4991378;28;20030;-51
2023/08/21 12:28:49;;;;;;;9.32;5.00;;;;;;;;;;4994273;28;20045;-49
2023/08/21 12:31:15;;;;;;;10.27;5.45;;;;;;;;;;4994239;28;20030;-49
2023/08/21 12:33:40;;;;;;;6.47;5.30;;;;;;;;;;4990053;28;20125;-50
2023/08/21 12:36:06;;;;;;;11.52;5.07;;;;;;;;;;4990229;28;20058;-47
2023/08/21 12:38:32;;;;;;;11.50;5.13;;;;;;;;;;4987315;28;20038;-50
2023/08/21 12:40:58;;;;;;;9.95;5.15;;;;;;;;;;4989938;28;20716;-50
2023/08/21 12:43:23;;;;;;;11.25;5.53;;;;;;;;;;4986941;28;20038;-53
2023/08/21 12:45:49;;;;;;;6.82;5.40;;;;;;;;;;4987462;28;20030;-54
2023/08/21 12:48:14;;;;;;;12.93;5.35;;;;;;;;;;4985485;28;20039;-49
2023/08/21 12:50:40;;;;;;;11.95;5.43;;;;;;;;;;4994123;28;20369;-47
2023/08/21 12:53:05;;;;;;;10.02;5.00;;;;;;;;;;4990555;28;20034;-49
2023/08/21 12:55:31;;;;;;;12.18;5.22;;;;;;;;;;4988488;28;20037;-50
2023/08/21 12:57:56;;;;;;;19.75;5.72;;;;;;;;;;4988540;28;20528;-51
2023/08/21 13:00:22;;;;;;;11.98;6.07;;;;;;;;;;4992063;28;20052;-47
2023/08/21 13:02:48;;;;;;;21.33;6.13;;;;;;;;;;4985717;28;20058;-47
2023/08/21 13:05:14;;;;;;;17.65;5.35;;;;;;;;;;4989296;28;20037;-49
2023/08/21 13:07:39;;;;;;;15.05;5.93;;;;;;;;;;4990528;28;20030;-53
2023/08/21 13:10:05;;;;;;;15.00;6.40;;;;;;;;;;4991120;28;20038;-50
2023/08/21 13:12:31;;;;;;;22.02;5.78;;;;;;;;;;4993709;28;20027;-51
2023/08/21 13:14:57;;;;;;;25.67;6.43;;;;;;;;;;4985023;28;20019;-49
2023/08/21 13:17:22;;;;;;;23.48;6.18;;;;;;;;;;4991879;28;20133;-50
2023/08/21 13:19:48;;;;;;;15.63;5.55;;;;;;;;;;4992715;28;20069;-47
2023/08/21 13:22:16;;;;;;;13.65;5.55;;;;;;;;;;4992542;28;20018;-53
2023/08/21 13:24:42;;;;;;;11.13;5.45;;;;;;;;;;4994400;28;20106;-51
2023/08/21 13:27:07;;;;;;;16.27;5.30;;;;;;;;;;4995377;28;20046;-52
2023/08/21 13:29:33;;;;;;;14.15;4.88;;;;;;;;;;4995652;28;20042;-50
2023/08/21 13:31:58;;;;;;;12.40;5.00;;;;;;;;;;4992784;28;20037;-50
2023/08/21 13:34:24;;;;;;;17.20;5.40;;;;;;;;;;5001291;28;20045;-48
2023/08/21 13:36:50;;;;;;;9.95;5.38;;;;;;;;;;4997138;28;20092;-53
2023/08/21 13:39:16;;;;;;;16.50;6.00;;;;;;;;;;5004713;28;20484;-51
2023/08/21 13:41:41;;;;;;;10.23;5.50;;;;;;;;;;4997631;28;20023;-52
2023/08/21 13:44:07;;;;;;;14.45;5.35;;;;;;;;;;4995543;28;20057;-48
2023/08/21 13:46:34;;;;;;;16.30;5.50;;;;;;;;;;4995939;28;20041;-48
2023/08/21 13:48:59;;;;;;;14.90;5.57;;;;;;;;;;4991325;28;20034;-50
2023/08/21 13:51:25;;;;;;;13.57;5.50;;;;;;;;;;4998232;28;20539;-47
2023/08/21 13:53:50;;;;;;;18.23;5.47;;;;;;;;;;4997979;28;20042;-46
2023/08/21 13:56:16;;;;;;;9.43;5.00;;;;;;;;;;4991351;28;20473;-45
2023/08/21 13:58:41;;;;;;;14.40;4.80;;;;;;;;;;4994344;28;20034;-45
2023/08/21 14:01:08;;;;;;;13.60;5.30;;;;;;;;;;4988952;28;20026;-47
2023/08/21 14:03:33;;;;;;;17.27;5.53;;;;;;;;;;4991907;28;20394;-49
2023/08/21 14:05:59;;;;;;;8.27;4.65;;;;;;;;;;4991867;28;20037;-46
2023/08/21 14:08:24;;;;;;;13.85;5.18;;;;;;;;;;4995906;28;20097;-50
2023/08/21 14:10:50;;;;;;;24.50;5.10;;;;;;;;;;4997574;28;20034;-46
2023/08/21 14:13:15;;;;;;;21.63;4.72;;;;;;;;;;4994909;28;20030;-47
2023/08/21 14:15:41;;;;;;;11.35;5.07;;;;;;;;;;4992162;28;20022;-47
2023/08/21 14:18:06;;;;;;;18.13;4.75;;;;;;;;;;4992555;28;20030;-49
2023/08/21 14:20:32;;;;;;;30.20;5.95;;;;;;;;;;4993511;28;20054;-48
2023/08/21 14:22:57;;;;;;;19.90;5.00;;;;;;;;;;4996268;28;20638;-52
2023/08/21 14:25:22;;;;;;;14.52;5.13;;;;;;;;;;4989473;28;20030;-51
2023/08/21 14:27:49;;;;;;;10.52;5.18;;;;;;;;;;4994784;28;20132;-48